Terminal Aerodrome Forecast
Issued by NWS

Home | Current Version | Previous Version | Text Only | Print | Product List | Glossary On
Versions: 1 2 3 4 5 6 7 8 9 10 11 12 13 14 15 16 17 18 19 20 21 22 23 24 25 26 27 28 29 30 31 32 33 34 35 36 37 38 39 40 41 42 43 44 45 46 47 48 49 50
000
FTAK31 PANC 271735
TAFADQ
TAF
PADQ 271735Z 2718/2818 VRB03KT P6SM -RASN BKN025 OVC035
     FM272200 07011KT P6SM VCSH BKN025
     FM280300 05018G28KT 5SM -RASN BR BKN012 OVC025
     FM281000 03020G30KT 2SM -SN BR BKN005 OVC012=

USA.gov is the U.S. government's official web portal to all federal, state and local government web resources and services.